sensor_id;sensor_type;location;lat;lon;timestamp;P1;durP1;ratioP1;P2;durP2;ratioP2
74170;SDS011;62526;50.948;6.590;2023-08-20T00:00:02;9.25;;;6.05;;
74170;SDS011;62526;50.948;6.590;2023-08-20T00:02:29;10.98;;;5.97;;
74170;SDS011;62526;50.948;6.590;2023-08-20T00:04:55;7.30;;;5.57;;
74170;SDS011;62526;50.948;6.590;2023-08-20T00:07:22;10.70;;;6.07;;
74170;SDS011;62526;50.948;6.590;2023-08-20T00:09:49;5.78;;;5.07;;
74170;SDS011;62526;50.948;6.590;2023-08-20T00:12:16;9.77;;;5.65;;
74170;SDS011;62526;50.948;6.590;2023-08-20T00:17:17;8.77;;;5.40;;
74170;SDS011;62526;50.948;6.590;2023-08-20T00:19:44;9.50;;;5.45;;
74170;SDS011;62526;50.948;6.590;2023-08-20T00:22:12;12.88;;;6.20;;
74170;SDS011;62526;50.948;6.590;2023-08-20T00:24:39;13.23;;;6.32;;
74170;SDS011;62526;50.948;6.590;2023-08-20T00:27:06;7.87;;;5.97;;
74170;SDS011;62526;50.948;6.590;2023-08-20T00:29:33;9.13;;;5.75;;
74170;SDS011;62526;50.948;6.590;2023-08-20T00:32:00;14.75;;;6.37;;
74170;SDS011;62526;50.948;6.590;2023-08-20T00:34:26;11.23;;;5.75;;
74170;SDS011;62526;50.948;6.590;2023-08-20T00:36:53;13.93;;;5.65;;
74170;SDS011;62526;50.948;6.590;2023-08-20T00:39:20;12.23;;;6.22;;
74170;SDS011;62526;50.948;6.590;2023-08-20T00:41:47;9.40;;;6.22;;
74170;SDS011;62526;50.948;6.590;2023-08-20T00:44:13;12.02;;;6.60;;
74170;SDS011;62526;50.948;6.590;2023-08-20T00:46:40;16.55;;;6.75;;
74170;SDS011;62526;50.948;6.590;2023-08-20T00:49:07;13.10;;;5.87;;
74170;SDS011;62526;50.948;6.590;2023-08-20T00:51:34;14.57;;;6.10;;
74170;SDS011;62526;50.948;6.590;2023-08-20T00:54:01;12.80;;;5.97;;
74170;SDS011;62526;50.948;6.590;2023-08-20T00:56:28;16.55;;;6.40;;
74170;SDS011;62526;50.948;6.590;2023-08-20T00:58:54;13.07;;;6.07;;
74170;SDS011;62526;50.948;6.590;2023-08-20T01:01:22;13.20;;;6.30;;
74170;SDS011;62526;50.948;6.590;2023-08-20T01:03:48;11.48;;;6.07;;
74170;SDS011;62526;50.948;6.590;2023-08-20T01:08:53;8.50;;;6.32;;
74170;SDS011;62526;50.948;6.590;2023-08-20T01:11:21;12.40;;;6.70;;
74170;SDS011;62526;50.948;6.590;2023-08-20T01:13:47;9.93;;;6.25;;
74170;SDS011;62526;50.948;6.590;2023-08-20T01:16:14;10.60;;;6.05;;
74170;SDS011;62526;50.948;6.590;2023-08-20T01:18:41;9.10;;;6.22;;
74170;SDS011;62526;50.948;6.590;2023-08-20T01:21:13;12.18;;;6.55;;
74170;SDS011;62526;50.948;6.590;2023-08-20T01:23:42;11.05;;;6.20;;
74170;SDS011;62526;50.948;6.590;2023-08-20T01:26:29;7.97;;;6.20;;
74170;SDS011;62526;50.948;6.590;2023-08-20T01:28:52;15.82;;;6.82;;
74170;SDS011;62526;50.948;6.590;2023-08-20T01:31:19;10.82;;;7.43;;
74170;SDS011;62526;50.948;6.590;2023-08-20T01:33:45;9.95;;;6.90;;
74170;SDS011;62526;50.948;6.590;2023-08-20T01:36:13;12.52;;;6.87;;
74170;SDS011;62526;50.948;6.590;2023-08-20T01:38:39;14.43;;;7.03;;
74170;SDS011;62526;50.948;6.590;2023-08-20T01:41:06;15.45;;;7.82;;
74170;SDS011;62526;50.948;6.590;2023-08-20T01:43:33;19.58;;;7.25;;
74170;SDS011;62526;50.948;6.590;2023-08-20T01:46:00;14.02;;;7.20;;
74170;SDS011;62526;50.948;6.590;2023-08-20T01:48:27;12.35;;;7.82;;
74170;SDS011;62526;50.948;6.590;2023-08-20T01:53:36;14.63;;;6.90;;
74170;SDS011;62526;50.948;6.590;2023-08-20T01:56:04;12.55;;;6.45;;
74170;SDS011;62526;50.948;6.590;2023-08-20T01:58:30;15.43;;;6.50;;
74170;SDS011;62526;50.948;6.590;2023-08-20T02:00:57;14.60;;;7.28;;
74170;SDS011;62526;50.948;6.590;2023-08-20T02:03:24;13.52;;;7.32;;
74170;SDS011;62526;50.948;6.590;2023-08-20T02:05:52;12.25;;;7.75;;
74170;SDS011;62526;50.948;6.590;2023-08-20T02:08:20;14.07;;;8.00;;
74170;SDS011;62526;50.948;6.590;2023-08-20T02:10:46;12.43;;;7.55;;
74170;SDS011;62526;50.948;6.590;2023-08-20T02:13:13;13.15;;;6.70;;
74170;SDS011;62526;50.948;6.590;2023-08-20T02:15:40;10.00;;;6.90;;
74170;SDS011;62526;50.948;6.590;2023-08-20T02:18:07;9.05;;;6.10;;
74170;SDS011;62526;50.948;6.590;2023-08-20T02:20:33;12.45;;;6.82;;
74170;SDS011;62526;50.948;6.590;2023-08-20T02:23:00;12.90;;;6.62;;
74170;SDS011;62526;50.948;6.590;2023-08-20T02:25:26;12.80;;;7.53;;
74170;SDS011;62526;50.948;6.590;2023-08-20T02:27:54;16.98;;;7.72;;
74170;SDS011;62526;50.948;6.590;2023-08-20T02:30:20;14.45;;;6.82;;
74170;SDS011;62526;50.948;6.590;2023-08-20T02:32:48;17.02;;;8.38;;
74170;SDS011;62526;50.948;6.590;2023-08-20T02:35:15;13.80;;;7.93;;
74170;SDS011;62526;50.948;6.590;2023-08-20T02:37:42;11.60;;;7.80;;
74170;SDS011;62526;50.948;6.590;2023-08-20T02:40:09;12.45;;;8.35;;
74170;SDS011;62526;50.948;6.590;2023-08-20T02:42:37;14.05;;;7.45;;
74170;SDS011;62526;50.948;6.590;2023-08-20T02:45:03;19.85;;;7.07;;
74170;SDS011;62526;50.948;6.590;2023-08-20T02:47:31;12.20;;;7.43;;
74170;SDS011;62526;50.948;6.590;2023-08-20T02:49:58;13.07;;;7.22;;
74170;SDS011;62526;50.948;6.590;2023-08-20T02:52:25;10.82;;;7.22;;
74170;SDS011;62526;50.948;6.590;2023-08-20T02:54:52;13.30;;;8.55;;
74170;SDS011;62526;50.948;6.590;2023-08-20T02:57:18;20.85;;;10.07;;
74170;SDS011;62526;50.948;6.590;2023-08-20T02:59:46;13.50;;;9.25;;
74170;SDS011;62526;50.948;6.590;2023-08-20T03:02:12;20.52;;;11.07;;
74170;SDS011;62526;50.948;6.590;2023-08-20T03:04:39;23.60;;;11.73;;
74170;SDS011;62526;50.948;6.590;2023-08-20T03:07:06;17.20;;;9.52;;
74170;SDS011;62526;50.948;6.590;2023-08-20T03:09:33;13.75;;;9.48;;
74170;SDS011;62526;50.948;6.590;2023-08-20T03:11:59;16.60;;;10.20;;
74170;SDS011;62526;50.948;6.590;2023-08-20T03:14:27;16.55;;;10.02;;
74170;SDS011;62526;50.948;6.590;2023-08-20T03:16:54;14.18;;;9.07;;
74170;SDS011;62526;50.948;6.590;2023-08-20T03:19:21;15.23;;;10.73;;
74170;SDS011;62526;50.948;6.590;2023-08-20T03:21:47;16.27;;;9.18;;
74170;SDS011;62526;50.948;6.590;2023-08-20T03:24:14;14.00;;;9.93;;
74170;SDS011;62526;50.948;6.590;2023-08-20T03:26:41;19.60;;;10.55;;
74170;SDS011;62526;50.948;6.590;2023-08-20T03:29:08;18.45;;;10.15;;
74170;SDS011;62526;50.948;6.590;2023-08-20T03:31:35;17.33;;;11.50;;
74170;SDS011;62526;50.948;6.590;2023-08-20T03:34:02;18.37;;;10.57;;
74170;SDS011;62526;50.948;6.590;2023-08-20T03:36:28;17.87;;;10.48;;
74170;SDS011;62526;50.948;6.590;2023-08-20T03:38:56;18.65;;;10.65;;
74170;SDS011;62526;50.948;6.590;2023-08-20T03:41:22;16.52;;;10.30;;
74170;SDS011;62526;50.948;6.590;2023-08-20T03:43:50;15.32;;;10.18;;
74170;SDS011;62526;50.948;6.590;2023-08-20T03:46:16;19.62;;;10.82;;
74170;SDS011;62526;50.948;6.590;2023-08-20T03:48:43;20.58;;;12.32;;
74170;SDS011;62526;50.948;6.590;2023-08-20T03:51:16;22.00;;;11.38;;
74170;SDS011;62526;50.948;6.590;2023-08-20T03:53:43;19.15;;;10.60;;
74170;SDS011;62526;50.948;6.590;2023-08-20T03:56:10;21.85;;;11.05;;
74170;SDS011;62526;50.948;6.590;2023-08-20T03:58:37;21.92;;;12.23;;
74170;SDS011;62526;50.948;6.590;2023-08-20T04:01:03;18.23;;;11.35;;
74170;SDS011;62526;50.948;6.590;2023-08-20T04:03:31;16.02;;;11.35;;
74170;SDS011;62526;50.948;6.590;2023-08-20T04:05:57;20.33;;;11.68;;
74170;SDS011;62526;50.948;6.590;2023-08-20T04:08:24;24.73;;;11.57;;
74170;SDS011;62526;50.948;6.590;2023-08-20T04:10:52;22.55;;;12.88;;
74170;SDS011;62526;50.948;6.590;2023-08-20T04:13:19;17.90;;;12.30;;
74170;SDS011;62526;50.948;6.590;2023-08-20T04:15:46;19.40;;;11.75;;
74170;SDS011;62526;50.948;6.590;2023-08-20T04:18:13;22.80;;;11.23;;
74170;SDS011;62526;50.948;6.590;2023-08-20T04:20:40;20.42;;;12.15;;
74170;SDS011;62526;50.948;6.590;2023-08-20T04:23:06;24.67;;;12.48;;
74170;SDS011;62526;50.948;6.590;2023-08-20T04:25:34;21.95;;;11.88;;
74170;SDS011;62526;50.948;6.590;2023-08-20T04:28:00;19.02;;;12.02;;
74170;SDS011;62526;50.948;6.590;2023-08-20T04:30:27;21.48;;;11.80;;
74170;SDS011;62526;50.948;6.590;2023-08-20T04:32:54;21.80;;;11.82;;
74170;SDS011;62526;50.948;6.590;2023-08-20T04:35:21;19.90;;;12.13;;
74170;SDS011;62526;50.948;6.590;2023-08-20T04:37:48;19.75;;;12.60;;
74170;SDS011;62526;50.948;6.590;2023-08-20T04:40:15;26.52;;;12.60;;
74170;SDS011;62526;50.948;6.590;2023-08-20T04:42:41;24.10;;;12.90;;
74170;SDS011;62526;50.948;6.590;2023-08-20T04:45:09;20.85;;;12.68;;
74170;SDS011;62526;50.948;6.590;2023-08-20T04:47:36;20.77;;;11.75;;
74170;SDS011;62526;50.948;6.590;2023-08-20T04:50:02;20.12;;;11.88;;
74170;SDS011;62526;50.948;6.590;2023-08-20T04:52:30;20.25;;;12.52;;
74170;SDS011;62526;50.948;6.590;2023-08-20T04:54:56;21.62;;;12.37;;
74170;SDS011;62526;50.948;6.590;2023-08-20T04:57:23;18.12;;;11.57;;
74170;SDS011;62526;50.948;6.590;2023-08-20T04:59:50;22.05;;;12.63;;
74170;SDS011;62526;50.948;6.590;2023-08-20T05:02:16;23.30;;;11.82;;
74170;SDS011;62526;50.948;6.590;2023-08-20T05:04:43;23.00;;;12.43;;
74170;SDS011;62526;50.948;6.590;2023-08-20T05:07:10;19.12;;;13.20;;
74170;SDS011;62526;50.948;6.590;2023-08-20T05:09:37;20.05;;;12.52;;
74170;SDS011;62526;50.948;6.590;2023-08-20T05:12:04;22.13;;;13.32;;
74170;SDS011;62526;50.948;6.590;2023-08-20T05:14:31;27.20;;;12.88;;
74170;SDS011;62526;50.948;6.590;2023-08-20T05:16:57;21.65;;;12.02;;
74170;SDS011;62526;50.948;6.590;2023-08-20T05:19:25;20.42;;;12.18;;
74170;SDS011;62526;50.948;6.590;2023-08-20T05:21:51;20.60;;;11.95;;
74170;SDS011;62526;50.948;6.590;2023-08-20T05:24:18;27.73;;;12.27;;
74170;SDS011;62526;50.948;6.590;2023-08-20T05:26:45;17.42;;;12.32;;
74170;SDS011;62526;50.948;6.590;2023-08-20T05:29:12;18.67;;;11.98;;
74170;SDS011;62526;50.948;6.590;2023-08-20T05:31:39;22.00;;;12.82;;
74170;SDS011;62526;50.948;6.590;2023-08-20T05:34:06;22.27;;;13.20;;
74170;SDS011;62526;50.948;6.590;2023-08-20T05:36:33;20.23;;;13.57;;
74170;SDS011;62526;50.948;6.590;2023-08-20T05:39:00;17.80;;;12.43;;
74170;SDS011;62526;50.948;6.590;2023-08-20T05:41:26;19.33;;;13.15;;
74170;SDS011;62526;50.948;6.590;2023-08-20T05:43:53;22.92;;;13.70;;
74170;SDS011;62526;50.948;6.590;2023-08-20T05:46:20;27.95;;;13.18;;
74170;SDS011;62526;50.948;6.590;2023-08-20T05:48:47;23.33;;;14.07;;
74170;SDS011;62526;50.948;6.590;2023-08-20T05:51:17;27.80;;;14.27;;
74170;SDS011;62526;50.948;6.590;2023-08-20T05:53:44;21.98;;;14.10;;
74170;SDS011;62526;50.948;6.590;2023-08-20T05:56:10;22.13;;;13.60;;
74170;SDS011;62526;50.948;6.590;2023-08-20T05:58:38;20.40;;;14.00;;
74170;SDS011;62526;50.948;6.590;2023-08-20T06:01:04;23.00;;;14.50;;
74170;SDS011;62526;50.948;6.590;2023-08-20T06:03:32;26.40;;;14.75;;
74170;SDS011;62526;50.948;6.590;2023-08-20T06:05:58;20.45;;;13.77;;
74170;SDS011;62526;50.948;6.590;2023-08-20T06:08:25;21.00;;;14.23;;
74170;SDS011;62526;50.948;6.590;2023-08-20T06:10:52;22.25;;;13.32;;
74170;SDS011;62526;50.948;6.590;2023-08-20T06:13:19;23.87;;;14.13;;
74170;SDS011;62526;50.948;6.590;2023-08-20T06:15:46;24.42;;;13.52;;
74170;SDS011;62526;50.948;6.590;2023-08-20T06:18:13;21.42;;;14.45;;
74170;SDS011;62526;50.948;6.590;2023-08-20T06:20:40;24.42;;;13.77;;
74170;SDS011;62526;50.948;6.590;2023-08-20T06:23:06;23.27;;;14.48;;
74170;SDS011;62526;50.948;6.590;2023-08-20T06:25:33;23.95;;;14.45;;
74170;SDS011;62526;50.948;6.590;2023-08-20T06:28:00;20.20;;;14.70;;
74170;SDS011;62526;50.948;6.590;2023-08-20T06:30:27;21.17;;;14.32;;
74170;SDS011;62526;50.948;6.590;2023-08-20T06:32:54;22.05;;;15.15;;
74170;SDS011;62526;50.948;6.590;2023-08-20T06:35:20;20.37;;;14.07;;
74170;SDS011;62526;50.948;6.590;2023-08-20T06:37:48;22.73;;;13.48;;
74170;SDS011;62526;50.948;6.590;2023-08-20T06:40:14;24.73;;;14.60;;
74170;SDS011;62526;50.948;6.590;2023-08-20T06:42:41;27.90;;;14.52;;
74170;SDS011;62526;50.948;6.590;2023-08-20T06:45:08;24.77;;;15.15;;
74170;SDS011;62526;50.948;6.590;2023-08-20T06:47:35;25.30;;;15.10;;
74170;SDS011;62526;50.948;6.590;2023-08-20T06:50:02;25.83;;;15.55;;
74170;SDS011;62526;50.948;6.590;2023-08-20T06:52:29;20.83;;;14.27;;
74170;SDS011;62526;50.948;6.590;2023-08-20T06:54:56;21.73;;;15.38;;
74170;SDS011;62526;50.948;6.590;2023-08-20T06:57:23;22.10;;;15.30;;
74170;SDS011;62526;50.948;6.590;2023-08-20T06:59:50;23.85;;;14.75;;
74170;SDS011;62526;50.948;6.590;2023-08-20T07:02:17;21.87;;;13.98;;
74170;SDS011;62526;50.948;6.590;2023-08-20T07:04:44;27.30;;;14.90;;
74170;SDS011;62526;50.948;6.590;2023-08-20T07:07:11;24.83;;;15.85;;
74170;SDS011;62526;50.948;6.590;2023-08-20T07:09:37;21.55;;;14.43;;
74170;SDS011;62526;50.948;6.590;2023-08-20T07:12:04;21.45;;;14.65;;
74170;SDS011;62526;50.948;6.590;2023-08-20T07:14:31;22.08;;;14.27;;
74170;SDS011;62526;50.948;6.590;2023-08-20T07:16:58;24.55;;;14.85;;
74170;SDS011;62526;50.948;6.590;2023-08-20T07:19:25;21.83;;;14.20;;
74170;SDS011;62526;50.948;6.590;2023-08-20T07:21:52;24.08;;;14.15;;
74170;SDS011;62526;50.948;6.590;2023-08-20T07:24:19;22.83;;;14.43;;
74170;SDS011;62526;50.948;6.590;2023-08-20T07:26:45;19.85;;;13.40;;
74170;SDS011;62526;50.948;6.590;2023-08-20T07:29:13;20.50;;;14.18;;
74170;SDS011;62526;50.948;6.590;2023-08-20T07:31:39;24.02;;;13.75;;
74170;SDS011;62526;50.948;6.590;2023-08-20T07:34:07;23.00;;;13.68;;
74170;SDS011;62526;50.948;6.590;2023-08-20T07:36:33;22.10;;;15.63;;
74170;SDS011;62526;50.948;6.590;2023-08-20T07:39:01;21.33;;;14.30;;
74170;SDS011;62526;50.948;6.590;2023-08-20T07:41:27;23.17;;;14.40;;
74170;SDS011;62526;50.948;6.590;2023-08-20T07:43:54;25.50;;;14.43;;
74170;SDS011;62526;50.948;6.590;2023-08-20T07:46:21;23.62;;;14.75;;
74170;SDS011;62526;50.948;6.590;2023-08-20T07:48:48;21.90;;;14.80;;
74170;SDS011;62526;50.948;6.590;2023-08-20T07:51:21;19.27;;;14.38;;
74170;SDS011;62526;50.948;6.590;2023-08-20T07:53:47;22.55;;;14.23;;
74170;SDS011;62526;50.948;6.590;2023-08-20T07:56:14;25.42;;;13.52;;
74170;SDS011;62526;50.948;6.590;2023-08-20T07:58:40;24.45;;;15.75;;
74170;SDS011;62526;50.948;6.590;2023-08-20T08:01:07;19.48;;;14.38;;
74170;SDS011;62526;50.948;6.590;2023-08-20T08:03:34;24.55;;;15.20;;
74170;SDS011;62526;50.948;6.590;2023-08-20T08:06:01;28.62;;;15.95;;
74170;SDS011;62526;50.948;6.590;2023-08-20T08:08:28;23.70;;;15.85;;
74170;SDS011;62526;50.948;6.590;2023-08-20T08:10:54;22.85;;;15.10;;
74170;SDS011;62526;50.948;6.590;2023-08-20T08:13:22;22.30;;;14.65;;
74170;SDS011;62526;50.948;6.590;2023-08-20T08:15:49;27.58;;;14.55;;
74170;SDS011;62526;50.948;6.590;2023-08-20T08:18:17;22.60;;;14.85;;
74170;SDS011;62526;50.948;6.590;2023-08-20T08:20:43;22.65;;;14.02;;
74170;SDS011;62526;50.948;6.590;2023-08-20T08:23:10;23.40;;;14.43;;
74170;SDS011;62526;50.948;6.590;2023-08-20T08:25:37;21.20;;;15.15;;
74170;SDS011;62526;50.948;6.590;2023-08-20T08:28:04;23.95;;;16.05;;
74170;SDS011;62526;50.948;6.590;2023-08-20T08:30:31;21.73;;;14.32;;
74170;SDS011;62526;50.948;6.590;2023-08-20T08:32:58;23.55;;;15.25;;
74170;SDS011;62526;50.948;6.590;2023-08-20T08:35:25;27.60;;;15.18;;
74170;SDS011;62526;50.948;6.590;2023-08-20T08:37:52;23.00;;;15.68;;
74170;SDS011;62526;50.948;6.590;2023-08-20T08:40:19;23.70;;;15.25;;
74170;SDS011;62526;50.948;6.590;2023-08-20T08:42:47;22.45;;;15.15;;
74170;SDS011;62526;50.948;6.590;2023-08-20T08:45:14;25.50;;;16.37;;
74170;SDS011;62526;50.948;6.590;2023-08-20T08:47:41;24.35;;;15.23;;
74170;SDS011;62526;50.948;6.590;2023-08-20T08:50:08;23.42;;;15.40;;
74170;SDS011;62526;50.948;6.590;2023-08-20T08:52:36;22.98;;;16.45;;
74170;SDS011;62526;50.948;6.590;2023-08-20T08:55:02;18.77;;;14.43;;
74170;SDS011;62526;50.948;6.590;2023-08-20T08:57:30;17.98;;;13.82;;
74170;SDS011;62526;50.948;6.590;2023-08-20T08:59:56;22.50;;;13.30;;
74170;SDS011;62526;50.948;6.590;2023-08-20T09:02:22;19.77;;;14.63;;
74170;SDS011;62526;50.948;6.590;2023-08-20T09:04:50;22.77;;;15.35;;
74170;SDS011;62526;50.948;6.590;2023-08-20T09:07:16;23.48;;;14.48;;
74170;SDS011;62526;50.948;6.590;2023-08-20T09:09:45;19.98;;;13.52;;
74170;SDS011;62526;50.948;6.590;2023-08-20T09:12:14;18.23;;;13.02;;
74170;SDS011;62526;50.948;6.590;2023-08-20T09:14:43;22.77;;;14.07;;
74170;SDS011;62526;50.948;6.590;2023-08-20T09:17:15;18.55;;;13.45;;
74170;SDS011;62526;50.948;6.590;2023-08-20T09:19:42;17.12;;;12.25;;
74170;SDS011;62526;50.948;6.590;2023-08-20T09:22:10;18.50;;;10.38;;
74170;SDS011;62526;50.948;6.590;2023-08-20T09:24:41;16.48;;;10.00;;
74170;SDS011;62526;50.948;6.590;2023-08-20T09:27:09;18.75;;;10.80;;
74170;SDS011;62526;50.948;6.590;2023-08-20T09:32:09;17.58;;;10.52;;
74170;SDS011;62526;50.948;6.590;2023-08-20T09:34:37;16.02;;;9.43;;
74170;SDS011;62526;50.948;6.590;2023-08-20T09:37:05;12.20;;;9.10;;
74170;SDS011;62526;50.948;6.590;2023-08-20T09:39:33;10.73;;;7.47;;
74170;SDS011;62526;50.948;6.590;2023-08-20T09:42:00;7.50;;;6.00;;
74170;SDS011;62526;50.948;6.590;2023-08-20T09:44:27;12.65;;;5.82;;
74170;SDS011;62526;50.948;6.590;2023-08-20T09:46:54;10.68;;;6.37;;
74170;SDS011;62526;50.948;6.590;2023-08-20T09:49:20;12.93;;;6.55;;
74170;SDS011;62526;50.948;6.590;2023-08-20T09:51:47;6.20;;;5.40;;
74170;SDS011;62526;50.948;6.590;2023-08-20T09:54:16;8.20;;;5.97;;
74170;SDS011;62526;50.948;6.590;2023-08-20T09:56:40;9.07;;;6.25;;
74170;SDS011;62526;50.948;6.590;2023-08-20T09:59:07;11.50;;;6.55;;
74170;SDS011;62526;50.948;6.590;2023-08-20T10:01:33;11.57;;;7.12;;
74170;SDS011;62526;50.948;6.590;2023-08-20T10:04:00;9.60;;;7.05;;
74170;SDS011;62526;50.948;6.590;2023-08-20T10:06:27;13.73;;;8.23;;
74170;SDS011;62526;50.948;6.590;2023-08-20T10:08:53;11.65;;;7.05;;
74170;SDS011;62526;50.948;6.590;2023-08-20T10:11:20;11.25;;;6.97;;
74170;SDS011;62526;50.948;6.590;2023-08-20T10:13:47;10.85;;;6.82;;
74170;SDS011;62526;50.948;6.590;2023-08-20T10:16:17;8.73;;;7.20;;
74170;SDS011;62526;50.948;6.590;2023-08-20T10:18:42;11.68;;;7.82;;
74170;SDS011;62526;50.948;6.590;2023-08-20T10:21:08;10.48;;;7.43;;
74170;SDS011;62526;50.948;6.590;2023-08-20T10:23:36;10.07;;;7.03;;
74170;SDS011;62526;50.948;6.590;2023-08-20T10:26:07;12.65;;;7.35;;
74170;SDS011;62526;50.948;6.590;2023-08-20T10:28:33;9.88;;;7.20;;
74170;SDS011;62526;50.948;6.590;2023-08-20T10:31:04;9.48;;;6.72;;
74170;SDS011;62526;50.948;6.590;2023-08-20T10:33:30;9.60;;;6.53;;
74170;SDS011;62526;50.948;6.590;2023-08-20T10:35:57;13.32;;;7.68;;
74170;SDS011;62526;50.948;6.590;2023-08-20T10:38:24;13.02;;;7.97;;
74170;SDS011;62526;50.948;6.590;2023-08-20T10:40:52;9.65;;;7.62;;
74170;SDS011;62526;50.948;6.590;2023-08-20T10:43:26;10.45;;;6.68;;
74170;SDS011;62526;50.948;6.590;2023-08-20T10:48:27;6.87;;;6.18;;
74170;SDS011;62526;50.948;6.590;2023-08-20T10:53:34;8.90;;;6.55;;
74170;SDS011;62526;50.948;6.590;2023-08-20T10:58:33;9.07;;;6.37;;
74170;SDS011;62526;50.948;6.590;2023-08-20T11:03:38;11.15;;;6.60;;
74170;SDS011;62526;50.948;6.590;2023-08-20T11:06:04;8.80;;;6.12;;
74170;SDS011;62526;50.948;6.590;2023-08-20T11:08:31;8.20;;;5.82;;
74170;SDS011;62526;50.948;6.590;2023-08-20T11:10:58;8.30;;;5.62;;
74170;SDS011;62526;50.948;6.590;2023-08-20T11:13:25;7.20;;;5.90;;
74170;SDS011;62526;50.948;6.590;2023-08-20T11:15:51;8.13;;;5.18;;
74170;SDS011;62526;50.948;6.590;2023-08-20T11:18:17;7.97;;;6.50;;
74170;SDS011;62526;50.948;6.590;2023-08-20T11:20:44;9.98;;;6.20;;
74170;SDS011;62526;50.948;6.590;2023-08-20T11:23:10;7.47;;;5.68;;
74170;SDS011;62526;50.948;6.590;2023-08-20T11:25:41;8.70;;;5.60;;
74170;SDS011;62526;50.948;6.590;2023-08-20T11:28:07;8.45;;;5.30;;
74170;SDS011;62526;50.948;6.590;2023-08-20T11:30:33;10.40;;;6.00;;
74170;SDS011;62526;50.948;6.590;2023-08-20T11:33:00;10.48;;;6.68;;
74170;SDS011;62526;50.948;6.590;2023-08-20T11:35:27;8.52;;;5.37;;
74170;SDS011;62526;50.948;6.590;2023-08-20T11:37:53;10.15;;;5.82;;
74170;SDS011;62526;50.948;6.590;2023-08-20T11:40:20;8.73;;;5.47;;
74170;SDS011;62526;50.948;6.590;2023-08-20T11:42:46;6.93;;;5.40;;
74170;SDS011;62526;50.948;6.590;2023-08-20T11:45:13;7.00;;;5.12;;
74170;SDS011;62526;50.948;6.590;2023-08-20T11:47:40;10.00;;;5.60;;
74170;SDS011;62526;50.948;6.590;2023-08-20T11:50:07;6.72;;;4.78;;
74170;SDS011;62526;50.948;6.590;2023-08-20T11:52:34;7.97;;;5.82;;
74170;SDS011;62526;50.948;6.590;2023-08-20T11:55:00;5.35;;;4.85;;
74170;SDS011;62526;50.948;6.590;2023-08-20T11:57:28;7.32;;;5.35;;
74170;SDS011;62526;50.948;6.590;2023-08-20T11:59:54;7.75;;;5.53;;
74170;SDS011;62526;50.948;6.590;2023-08-20T12:02:25;8.40;;;5.65;;
74170;SDS011;62526;50.948;6.590;2023-08-20T12:04:51;7.72;;;5.82;;
74170;SDS011;62526;50.948;6.590;2023-08-20T12:07:18;9.25;;;6.15;;
74170;SDS011;62526;50.948;6.590;2023-08-20T12:09:44;7.53;;;5.78;;
74170;SDS011;62526;50.948;6.590;2023-08-20T12:12:11;8.93;;;5.55;;
74170;SDS011;62526;50.948;6.590;2023-08-20T12:14:37;9.38;;;5.25;;
74170;SDS011;62526;50.948;6.590;2023-08-20T12:17:04;5.25;;;4.75;;
74170;SDS011;62526;50.948;6.590;2023-08-20T12:19:31;6.60;;;5.10;;
74170;SDS011;62526;50.948;6.590;2023-08-20T12:21:58;7.32;;;4.53;;
74170;SDS011;62526;50.948;6.590;2023-08-20T12:24:24;6.40;;;4.28;;
74170;SDS011;62526;50.948;6.590;2023-08-20T12:26:51;6.00;;;4.95;;
74170;SDS011;62526;50.948;6.590;2023-08-20T12:29:17;9.05;;;5.18;;
74170;SDS011;62526;50.948;6.590;2023-08-20T12:31:44;8.25;;;4.47;;
74170;SDS011;62526;50.948;6.590;2023-08-20T12:34:11;6.05;;;4.75;;
74170;SDS011;62526;50.948;6.590;2023-08-20T12:36:37;6.78;;;4.55;;
74170;SDS011;62526;50.948;6.590;2023-08-20T12:39:04;5.22;;;3.95;;
74170;SDS011;62526;50.948;6.590;2023-08-20T12:41:31;8.45;;;4.50;;
74170;SDS011;62526;50.948;6.590;2023-08-20T12:43:57;5.43;;;4.47;;
74170;SDS011;62526;50.948;6.590;2023-08-20T12:46:24;5.97;;;4.62;;
74170;SDS011;62526;50.948;6.590;2023-08-20T12:48:50;4.87;;;4.03;;
74170;SDS011;62526;50.948;6.590;2023-08-20T12:51:21;6.55;;;4.75;;
74170;SDS011;62526;50.948;6.590;2023-08-20T12:53:48;4.82;;;4.15;;
74170;SDS011;62526;50.948;6.590;2023-08-20T12:56:14;8.95;;;4.40;;
74170;SDS011;62526;50.948;6.590;2023-08-20T12:58:41;7.55;;;4.57;;
74170;SDS011;62526;50.948;6.590;2023-08-20T13:01:08;4.72;;;3.90;;
74170;SDS011;62526;50.948;6.590;2023-08-20T13:03:35;6.35;;;4.57;;
74170;SDS011;62526;50.948;6.590;2023-08-20T13:06:03;7.72;;;4.18;;
74170;SDS011;62526;50.948;6.590;2023-08-20T13:08:30;7.93;;;4.18;;
74170;SDS011;62526;50.948;6.590;2023-08-20T13:10:57;5.20;;;3.92;;
74170;SDS011;62526;50.948;6.590;2023-08-20T13:13:24;6.22;;;3.90;;
74170;SDS011;62526;50.948;6.590;2023-08-20T13:15:51;7.18;;;4.40;;
74170;SDS011;62526;50.948;6.590;2023-08-20T13:18:18;4.90;;;3.72;;
74170;SDS011;62526;50.948;6.590;2023-08-20T13:20:45;8.40;;;4.47;;
74170;SDS011;62526;50.948;6.590;2023-08-20T13:23:12;4.75;;;3.72;;
74170;SDS011;62526;50.948;6.590;2023-08-20T13:25:39;5.20;;;3.80;;
74170;SDS011;62526;50.948;6.590;2023-08-20T13:28:05;5.35;;;3.78;;
74170;SDS011;62526;50.948;6.590;2023-08-20T13:30:32;6.60;;;4.03;;
74170;SDS011;62526;50.948;6.590;2023-08-20T13:32:59;5.45;;;3.65;;
74170;SDS011;62526;50.948;6.590;2023-08-20T13:35:25;5.47;;;4.12;;
74170;SDS011;62526;50.948;6.590;2023-08-20T13:37:52;6.00;;;4.10;;
74170;SDS011;62526;50.948;6.590;2023-08-20T13:40:19;4.75;;;3.30;;
74170;SDS011;62526;50.948;6.590;2023-08-20T13:42:46;5.80;;;3.60;;
74170;SDS011;62526;50.948;6.590;2023-08-20T13:45:12;5.47;;;3.55;;
74170;SDS011;62526;50.948;6.590;2023-08-20T13:47:39;6.93;;;4.00;;
74170;SDS011;62526;50.948;6.590;2023-08-20T13:50:06;7.40;;;4.37;;
74170;SDS011;62526;50.948;6.590;2023-08-20T13:52:33;9.35;;;4.95;;
74170;SDS011;62526;50.948;6.590;2023-08-20T13:55:00;4.57;;;4.10;;
74170;SDS011;62526;50.948;6.590;2023-08-20T13:57:26;6.03;;;4.30;;
74170;SDS011;62526;50.948;6.590;2023-08-20T13:59:53;7.37;;;4.70;;
74170;SDS011;62526;50.948;6.590;2023-08-20T14:02:20;9.07;;;4.70;;
74170;SDS011;62526;50.948;6.590;2023-08-20T14:04:47;5.60;;;4.57;;
74170;SDS011;62526;50.948;6.590;2023-08-20T14:07:14;5.70;;;4.12;;
74170;SDS011;62526;50.948;6.590;2023-08-20T14:09:41;6.43;;;4.70;;
74170;SDS011;62526;50.948;6.590;2023-08-20T14:12:07;7.60;;;4.90;;
74170;SDS011;62526;50.948;6.590;2023-08-20T14:14:35;7.53;;;5.00;;
74170;SDS011;62526;50.948;6.590;2023-08-20T14:17:01;5.47;;;4.10;;
74170;SDS011;62526;50.948;6.590;2023-08-20T14:19:28;9.45;;;4.60;;
74170;SDS011;62526;50.948;6.590;2023-08-20T14:21:55;7.78;;;4.28;;
74170;SDS011;62526;50.948;6.590;2023-08-20T14:24:22;6.43;;;4.68;;
74170;SDS011;62526;50.948;6.590;2023-08-20T14:26:48;6.10;;;4.22;;
74170;SDS011;62526;50.948;6.590;2023-08-20T14:29:16;5.18;;;3.95;;
74170;SDS011;62526;50.948;6.590;2023-08-20T14:31:42;6.07;;;4.25;;
74170;SDS011;62526;50.948;6.590;2023-08-20T14:34:10;6.43;;;4.10;;
74170;SDS011;62526;50.948;6.590;2023-08-20T14:36:36;7.05;;;3.87;;
74170;SDS011;62526;50.948;6.590;2023-08-20T14:39:05;6.15;;;4.45;;
74170;SDS011;62526;50.948;6.590;2023-08-20T14:41:30;6.43;;;3.87;;
74170;SDS011;62526;50.948;6.590;2023-08-20T14:43:57;5.95;;;3.80;;
74170;SDS011;62526;50.948;6.590;2023-08-20T14:46:24;5.93;;;4.37;;
74170;SDS011;62526;50.948;6.590;2023-08-20T14:48:51;5.35;;;3.95;;
74170;SDS011;62526;50.948;6.590;2023-08-20T14:51:18;6.82;;;3.80;;